Friday, May 29, 2015, 10:13 PM EDT

KUNV, State College, University Park Airport

Location: State College, PA, United States Lat: 40.85
Local Time: 10:13 PM EDT ( 2:13 GMT) Lon: -77.85
Time Zone: US/Eastern Elev: 1240 ft

Show me the last for .
Show Decoded

2015-05-29 20:53 METAR KUNV 300053Z 18005KT 10SM SKC 25/17 A3018 =
2015-05-29 19:53 METAR KUNV 292353Z 18004KT 10SM SCT045 25/17 A3018 =
2015-05-29 18:53 METAR KUNV 292253Z 16006KT 10SM SCT050 SCT055 27/17 A3017 =
2015-05-29 17:53 METAR KUNV 292153Z 18006KT 10SM SCT050 SCT080 27/16 A3017 =
2015-05-29 16:53 METAR KUNV 292053Z COR 18006KT 10SM SCT048 SCT060 27/16 A3019 =
2015-05-29 15:53 METAR KUNV 291953Z 20010KT 10SM SCT050 28/16 A3022 =
2015-05-29 14:53 METAR KUNV 291853Z 18009KT 10SM FEW070 28/15 A3024 =
2015-05-29 13:53 METAR KUNV 291753Z 20007KT 10SM SKC 27/15 A3026 =
2015-05-29 11:53 METAR KUNV 291553Z 18005KT 10SM SKC 25/12 A3028 =
2015-05-29 10:53 METAR KUNV 291453Z 17008KT 10SM SKC 23/10 A3030 =
2015-05-29 09:53 METAR KUNV 291353Z 00000KT 10SM SKC 21/12 A3030 =
2015-05-29 08:53 METAR KUNV 291253Z 00000KT 10SM SKC 19/13 A3031 =
2015-05-29 07:53 METAR KUNV 291153Z 00000KT 10SM SKC 15/12 A3032 =
2015-05-29 06:53 METAR KUNV 291053Z 00000KT 10SM FEW060 13/12 A3032 =
2015-05-29 05:53 METAR KUNV 290953Z 00000KT 10SM SKC 12/11 A3030 =
2015-05-29 05:35 METAR KUNV 290935Z AUTO 00000KT 10SM CLR 13/12 A3029 RMK AO2 T01270116 =
2015-05-29 05:15 METAR KUNV 290915Z AUTO 00000KT 10SM CLR 13/11 A3029 RMK AO2 T01310112 =
2015-05-29 04:55 METAR KUNV 290855Z AUTO 00000KT 10SM CLR 14/12 A3029 RMK AO2 T01390115 =
2015-05-29 04:35 METAR KUNV 290835Z AUTO 00000KT 10SM CLR 13/12 A3028 RMK AO2 T01320115 =
2015-05-29 04:15 METAR KUNV 290815Z AUTO 00000KT 10SM CLR 15/12 A3028 RMK AO2 T01470117 =
2015-05-29 03:55 METAR KUNV 290755Z AUTO 00000KT 10SM SCT055 14/12 A3028 RMK AO2 T01370118 =
2015-05-29 03:35 METAR KUNV 290735Z AUTO 00000KT 10SM CLR 14/11 A3027 RMK AO2 T01370114 =
2015-05-29 03:15 METAR KUNV 290715Z AUTO 00000KT 10SM CLR 15/12 A3027 RMK AO2 T01500116 =
2015-05-29 02:35 METAR KUNV 290635Z AUTO 00000KT 10SM CLR 15/12 A3027 RMK AO2 T01540117 =
2015-05-29 02:15 METAR KUNV 290615Z AUTO 00000KT 10SM CLR 16/12 A3028 RMK AO2 T01560119 =
2015-05-29 01:35 METAR KUNV 290535Z AUTO 00000KT 10SM CLR 16/12 A3028 RMK AO2 T01600119 =
2015-05-29 01:15 METAR KUNV 290515Z AUTO 00000KT 10SM SCT060 SCT075 SCT095 16/12 A3028 RMK AO2
                 T01600121 =
2015-05-29 00:55 METAR KUNV 290455Z AUTO 00000KT 10SM SCT075 SCT085 16/12 A3029 RMK AO2 T01600120
                 =
2015-05-29 00:35 METAR KUNV 290435Z AUTO 00000KT 10SM SCT080 16/12 A3029 RMK AO2 T01620116 =
2015-05-29 00:15 METAR KUNV 290415Z AUTO 01004KT 10SM CLR 18/12 A3028 RMK AO2 T01810120 =
2015-05-28 23:55 METAR KUNV 290355Z AUTO 01003KT 10SM CLR 18/12 A3029 RMK AO2 T01810120 402820164
                 =
2015-05-28 23:35 METAR KUNV 290335Z AUTO 00000KT 10SM SCT065 SCT075 SCT100 19/12 A3028 RMK AO2
                 T01860120 =
2015-05-28 23:15 METAR KUNV 290315Z AUTO 00000KT 10SM SCT065 SCT075 19/12 A3028 RMK AO2 T01930120
                 =
2015-05-28 22:55 METAR KUNV 290255Z AUTO 02003KT 10SM SCT070 SCT100 20/12 A3028 RMK AO2 T01980118
                 =
2015-05-28 22:35 METAR KUNV 290235Z AUTO 00000KT 10SM SCT100 20/12 A3028 RMK AO2 T01970117 =
2015-05-28 22:15 METAR KUNV 290215Z AUTO 00000KT 10SM SCT100 20/12 A3027 RMK AO2 T01990116 =

Support USWX by starting your Amazon purchase here.